createdAt,value
2022-10-21T00:01:50.149Z,12.20
2022-10-21T00:04:16.744Z,12.20
2022-10-21T00:06:43.385Z,12.30
2022-10-21T00:09:10.056Z,12.20
2022-10-21T00:11:36.751Z,12.20
2022-10-21T00:14:03.941Z,12.20
2022-10-21T00:16:30.566Z,12.20
2022-10-21T00:18:57.167Z,12.20
2022-10-21T00:21:24.008Z,12.20
2022-10-21T00:23:51.045Z,12.10
2022-10-21T00:26:18.929Z,12.10
2022-10-21T00:28:45.543Z,12.10
2022-10-21T00:31:14.428Z,12.10
2022-10-21T00:33:41.357Z,12.10
2022-10-21T00:36:14.619Z,12.10
2022-10-21T00:38:43.241Z,12.10
2022-10-21T00:41:10.843Z,12.10
2022-10-21T00:44:06.745Z,12.00
2022-10-21T00:46:41.012Z,12.10
2022-10-21T00:49:21.395Z,12.10
2022-10-21T00:51:52.346Z,12.00
2022-10-21T00:54:22.954Z,12.00
2022-10-21T00:59:31.159Z,12.00
2022-10-21T01:01:58.039Z,12.20
2022-10-21T01:04:24.966Z,12.10
2022-10-21T01:06:52.234Z,12.00
2022-10-21T01:09:20.941Z,12.00
2022-10-21T01:11:50.198Z,12.00
2022-10-21T01:14:51.433Z,12.00
2022-10-21T01:17:44.526Z,12.00
2022-10-21T01:20:38.203Z,11.90
2022-10-21T01:23:19.848Z,11.90
2022-10-21T01:26:23.784Z,11.90
2022-10-21T01:29:06.098Z,11.90
2022-10-21T01:31:51.624Z,11.80
2022-10-21T01:34:41.006Z,11.80
2022-10-21T01:37:14.076Z,11.80
2022-10-21T01:39:47.429Z,11.80
2022-10-21T01:42:30.954Z,11.70
2022-10-21T01:45:28.032Z,11.80
2022-10-21T01:47:58.742Z,11.80
2022-10-21T01:50:33.772Z,11.80
2022-10-21T01:53:07.772Z,11.80
2022-10-21T01:55:36.545Z,11.80
2022-10-21T01:58:07.434Z,11.80
2022-10-21T02:00:37.032Z,11.80
2022-10-21T02:03:11.245Z,11.70
2022-10-21T02:05:38.485Z,11.70
2022-10-21T02:08:05.454Z,11.80
2022-10-21T02:10:41.800Z,11.80
2022-10-21T02:13:11.773Z,11.90
2022-10-21T02:15:40.546Z,11.90
2022-10-21T02:18:19.607Z,12.00
2022-10-21T02:20:48.618Z,11.90
2022-10-21T02:23:19.195Z,11.90
2022-10-21T02:25:50.464Z,12.00
2022-10-21T02:28:17.973Z,12.00
2022-10-21T02:31:14.817Z,12.00
2022-10-21T02:33:59.822Z,12.00
2022-10-21T02:36:39.522Z,12.00
2022-10-21T02:39:22.220Z,12.00
2022-10-21T02:41:50.751Z,12.00
2022-10-21T02:44:17.545Z,12.10
2022-10-21T02:46:47.246Z,12.00
2022-10-21T02:49:13.964Z,12.00
2022-10-21T02:51:41.551Z,12.00
2022-10-21T02:54:08.265Z,12.10
2022-10-21T02:56:35.391Z,12.00
2022-10-21T02:59:02.169Z,12.00
2022-10-21T03:01:29.035Z,11.90
2022-10-21T03:03:55.738Z,11.90
2022-10-21T03:06:22.763Z,11.90
2022-10-21T03:08:49.464Z,11.90
2022-10-21T03:11:16.249Z,12.00
2022-10-21T03:13:42.903Z,12.00
2022-10-21T03:16:09.788Z,12.00
2022-10-21T03:18:36.513Z,12.00
2022-10-21T03:21:03.404Z,12.00
2022-10-21T03:23:30.174Z,12.00
2022-10-21T03:25:56.849Z,12.10
2022-10-21T03:28:23.546Z,12.10
2022-10-21T03:30:50.235Z,12.10
2022-10-21T03:33:16.976Z,12.10
2022-10-21T03:35:43.676Z,12.10
2022-10-21T03:38:10.411Z,12.10
2022-10-21T03:40:37.045Z,12.00
2022-10-21T03:43:03.819Z,12.00
2022-10-21T03:45:30.510Z,12.00
2022-10-21T03:47:57.222Z,11.90
2022-10-21T03:50:26.591Z,11.90
2022-10-21T03:52:55.287Z,12.00
2022-10-21T03:55:24.169Z,12.00
2022-10-21T03:57:51.184Z,11.90
2022-10-21T04:00:17.896Z,12.00
2022-10-21T04:02:44.583Z,12.00
2022-10-21T04:05:12.303Z,12.00
2022-10-21T04:07:39.007Z,11.90
2022-10-21T04:10:07.587Z,11.90
2022-10-21T04:12:34.669Z,12.00
2022-10-21T04:15:01.459Z,11.90
2022-10-21T04:17:28.172Z,12.00
2022-10-21T04:19:54.839Z,11.90
2022-10-21T04:22:21.538Z,11.90
2022-10-21T04:24:48.188Z,11.90
2022-10-21T04:27:14.891Z,11.90
2022-10-21T04:29:41.614Z,11.90
2022-10-21T04:32:08.313Z,11.90
2022-10-21T04:34:35.073Z,11.90
2022-10-21T04:37:04.235Z,11.90
2022-10-21T04:39:32.357Z,11.90
2022-10-21T04:41:59.017Z,11.90
2022-10-21T04:44:25.821Z,11.90
2022-10-21T04:46:52.731Z,11.80
2022-10-21T04:49:19.665Z,11.90
2022-10-21T04:51:46.372Z,12.00
2022-10-21T04:54:13.537Z,12.00
2022-10-21T04:56:41.162Z,12.00
2022-10-21T04:59:07.838Z,12.10
2022-10-21T05:01:34.556Z,11.90
2022-10-21T05:04:01.327Z,12.00
2022-10-21T05:06:28.072Z,11.90
2022-10-21T05:08:54.909Z,12.00
2022-10-21T05:11:21.684Z,12.20
2022-10-21T05:13:48.348Z,12.00
2022-10-21T05:16:15.025Z,12.00
2022-10-21T05:18:41.758Z,12.00
2022-10-21T05:21:08.496Z,12.10
2022-10-21T05:23:49.879Z,12.40
2022-10-21T05:26:17.392Z,12.30
2022-10-21T05:28:44.126Z,12.50
2022-10-21T05:31:10.826Z,12.60
2022-10-21T05:33:37.620Z,12.70
2022-10-21T05:36:07.853Z,12.80
2022-10-21T05:38:35.381Z,12.90
2022-10-21T05:41:02.197Z,13.00
2022-10-21T05:43:28.969Z,13.30
2022-10-21T05:45:55.802Z,13.10
2022-10-21T05:48:22.635Z,13.10
2022-10-21T05:50:57.910Z,13.00
2022-10-21T05:53:25.394Z,13.00
2022-10-21T05:56:07.002Z,13.00
2022-10-21T05:58:34.601Z,13.00
2022-10-21T06:01:01.722Z,12.90
2022-10-21T06:03:31.042Z,12.90
2022-10-21T06:05:59.418Z,12.90
2022-10-21T06:08:26.534Z,12.90
2022-10-21T06:11:05.611Z,12.90
2022-10-21T06:13:33.102Z,13.00
2022-10-21T06:16:00.502Z,13.00
2022-10-21T06:18:27.845Z,13.10
2022-10-21T06:20:54.750Z,13.10
2022-10-21T06:23:21.789Z,13.20
2022-10-21T06:26:03.159Z,13.10
2022-10-21T06:28:32.408Z,13.20
2022-10-21T06:31:00.432Z,13.10
2022-10-21T06:33:30.118Z,13.20
2022-10-21T06:35:57.165Z,13.20
2022-10-21T06:38:25.964Z,13.10
2022-10-21T06:40:53.391Z,13.20
2022-10-21T06:43:20.129Z,13.20
2022-10-21T06:45:46.845Z,13.20
2022-10-21T06:48:13.789Z,13.10
2022-10-21T06:50:41.143Z,13.20
2022-10-21T06:53:07.954Z,13.10
2022-10-21T06:55:35.134Z,13.20
2022-10-21T06:58:01.874Z,13.10
2022-10-21T07:03:00.143Z,13.30
2022-10-21T07:05:27.151Z,13.20
2022-10-21T07:07:53.877Z,13.20
2022-10-21T07:10:21.050Z,13.20
2022-10-21T07:12:47.788Z,13.20
2022-10-21T07:15:14.850Z,13.30
2022-10-21T07:17:41.846Z,13.20
2022-10-21T07:20:09.113Z,13.20
2022-10-21T07:22:38.121Z,13.20
2022-10-21T07:25:05.357Z,13.30
2022-10-21T07:27:33.803Z,13.40
2022-10-21T07:30:00.611Z,13.40
2022-10-21T07:32:27.277Z,13.50
2022-10-21T07:34:53.878Z,13.50
2022-10-21T07:37:20.442Z,13.50
2022-10-21T07:39:47.027Z,13.50
2022-10-21T07:42:13.607Z,13.50
2022-10-21T07:44:40.206Z,13.60
2022-10-21T07:47:06.787Z,13.50
2022-10-21T07:49:33.458Z,13.60
2022-10-21T07:52:00.118Z,13.50
2022-10-21T07:54:26.696Z,13.60
2022-10-21T07:56:53.325Z,13.60
2022-10-21T07:59:21.570Z,13.60
2022-10-21T08:04:20.276Z,13.60
2022-10-21T08:06:47.975Z,13.60
2022-10-21T08:09:16.042Z,13.70
2022-10-21T08:11:43.065Z,13.70
2022-10-21T08:14:28.594Z,13.70
2022-10-21T08:16:55.852Z,13.70
2022-10-21T08:19:29.211Z,13.70
2022-10-21T08:21:56.821Z,13.70
2022-10-21T08:24:23.492Z,13.70
2022-10-21T08:26:51.114Z,13.70
2022-10-21T08:29:18.212Z,13.70
2022-10-21T08:31:44.925Z,13.70
2022-10-21T08:34:11.900Z,13.70
2022-10-21T08:36:39.193Z,13.80
2022-10-21T08:39:06.201Z,13.80
2022-10-21T08:41:41.834Z,13.70
2022-10-21T08:44:17.609Z,13.70
2022-10-21T08:46:57.601Z,13.70
2022-10-21T08:49:30.947Z,13.70
2022-10-21T08:52:03.323Z,13.70
2022-10-21T08:54:56.332Z,13.80
2022-10-21T08:57:23.259Z,13.80
2022-10-21T08:59:50.114Z,13.80
2022-10-21T09:02:54.328Z,13.80
2022-10-21T09:06:00.595Z,13.90
2022-10-21T09:08:56.511Z,13.90
2022-10-21T09:11:51.057Z,13.90
2022-10-21T09:14:20.789Z,13.90
2022-10-21T09:17:24.659Z,14.00
2022-10-21T09:20:33.047Z,14.00
2022-10-21T09:23:18.338Z,14.00
2022-10-21T09:26:01.432Z,14.10
2022-10-21T09:28:30.301Z,14.10
2022-10-21T09:31:00.765Z,14.10
2022-10-21T09:33:34.433Z,14.10
2022-10-21T09:36:10.559Z,14.20
2022-10-21T09:38:48.115Z,14.20
2022-10-21T09:41:18.787Z,14.20
2022-10-21T09:43:45.696Z,14.20
2022-10-21T09:46:13.938Z,14.20
2022-10-21T09:49:25.836Z,14.30
2022-10-21T09:51:42.555Z,14.30
2022-10-21T09:54:21.385Z,14.30
2022-10-21T09:56:58.415Z,14.40
2022-10-21T09:59:30.379Z,14.40
2022-10-21T10:02:07.680Z,14.40
2022-10-21T10:04:35.431Z,14.40
2022-10-21T10:07:32.553Z,14.40
2022-10-21T10:09:59.308Z,14.40
2022-10-21T10:12:27.514Z,14.40
2022-10-21T10:14:55.479Z,14.40
2022-10-21T10:17:37.075Z,14.40
2022-10-21T10:20:19.703Z,14.40
2022-10-21T10:23:09.024Z,14.40
2022-10-21T10:25:38.830Z,14.40
2022-10-21T10:28:19.779Z,14.40
2022-10-21T10:31:04.519Z,14.40
2022-10-21T10:33:34.582Z,14.50
2022-10-21T10:36:09.316Z,14.50
2022-10-21T10:38:41.052Z,14.50
2022-10-21T10:41:17.855Z,14.60
2022-10-21T10:43:54.215Z,14.70
2022-10-21T10:46:26.780Z,14.60
2022-10-21T10:48:55.606Z,14.60
2022-10-21T10:51:24.930Z,14.60
2022-10-21T10:54:17.357Z,14.70
2022-10-21T10:57:02.159Z,14.70
2022-10-21T10:59:40.773Z,14.70
2022-10-21T11:02:10.307Z,14.80
2022-10-21T11:04:58.517Z,14.80
2022-10-21T11:07:39.642Z,14.80
2022-10-21T11:10:50.016Z,14.90
2022-10-21T11:13:19.768Z,14.90
2022-10-21T11:16:01.432Z,15.00
2022-10-21T11:18:39.770Z,15.00
2022-10-21T11:21:43.783Z,15.00
2022-10-21T11:24:51.067Z,15.10
2022-10-21T11:27:26.871Z,15.20
2022-10-21T11:30:12.475Z,15.20
2022-10-21T11:32:53.829Z,15.10
2022-10-21T11:35:33.046Z,15.30
2022-10-21T11:38:14.664Z,15.30
2022-10-21T11:40:54.968Z,15.40
2022-10-21T11:43:28.980Z,15.50
2022-10-21T11:46:04.032Z,15.60
2022-10-21T11:48:53.097Z,15.70
2022-10-21T11:51:37.346Z,15.80
2022-10-21T11:54:26.877Z,15.80
2022-10-21T11:57:30.283Z,15.80
2022-10-21T12:00:06.418Z,15.80
2022-10-21T12:02:43.336Z,15.80
2022-10-21T12:05:32.571Z,15.80
2022-10-21T12:08:08.399Z,15.70
2022-10-21T12:10:45.599Z,15.70
2022-10-21T12:13:38.647Z,15.70
2022-10-21T12:16:09.262Z,15.70
2022-10-21T12:18:44.830Z,15.70
2022-10-21T12:21:18.712Z,15.70
2022-10-21T12:23:51.162Z,15.60
2022-10-21T12:26:40.035Z,15.70
2022-10-21T12:29:18.918Z,15.70
2022-10-21T12:31:51.360Z,15.70
2022-10-21T12:34:18.237Z,15.70
2022-10-21T12:36:49.400Z,15.70
2022-10-21T12:39:37.401Z,15.70
2022-10-21T12:42:19.498Z,15.80
2022-10-21T12:44:52.179Z,15.70
2022-10-21T12:47:30.921Z,15.70
2022-10-21T12:50:26.148Z,15.70
2022-10-21T12:53:30.183Z,15.70
2022-10-21T12:55:59.086Z,15.70
2022-10-21T12:58:31.339Z,15.70
2022-10-21T13:00:59.553Z,15.70
2022-10-21T13:03:44.843Z,15.70
2022-10-21T13:06:12.701Z,15.70
2022-10-21T13:08:43.978Z,15.80
2022-10-21T13:11:10.586Z,15.80
2022-10-21T13:13:47.805Z,15.80
2022-10-21T13:16:20.873Z,15.70
2022-10-21T13:18:50.700Z,15.70
2022-10-21T13:21:29.028Z,15.70
2022-10-21T13:24:04.202Z,15.60
2022-10-21T13:26:31.035Z,15.60
2022-10-21T13:29:00.805Z,15.60
2022-10-21T13:31:28.480Z,15.60
2022-10-21T13:33:56.228Z,15.50
2022-10-21T13:39:08.387Z,15.50
2022-10-21T13:41:35.407Z,15.50
2022-10-21T13:44:07.067Z,15.40
2022-10-21T13:46:40.703Z,15.40
2022-10-21T13:49:32.015Z,15.40
2022-10-21T13:51:59.192Z,15.40
2022-10-21T13:54:25.843Z,15.30
2022-10-21T13:56:52.450Z,15.30
2022-10-21T13:59:27.369Z,15.30
2022-10-21T14:01:56.347Z,15.30
2022-10-21T14:04:33.869Z,15.30
2022-10-21T14:07:15.737Z,15.30
2022-10-21T14:09:51.880Z,15.30
2022-10-21T14:12:25.324Z,15.40
2022-10-21T14:14:54.030Z,15.40
2022-10-21T14:17:24.507Z,15.30
2022-10-21T14:20:15.806Z,15.30
2022-10-21T14:22:46.976Z,15.30
2022-10-21T14:25:16.427Z,15.30
2022-10-21T14:27:46.880Z,15.30
2022-10-21T14:30:20.169Z,15.30
2022-10-21T14:32:47.894Z,15.30
2022-10-21T14:35:14.415Z,15.30
2022-10-21T14:37:55.339Z,15.30
2022-10-21T14:40:39.464Z,15.20
2022-10-21T14:43:18.245Z,15.20
2022-10-21T14:45:52.935Z,15.20
2022-10-21T14:48:19.544Z,15.20
2022-10-21T14:50:59.715Z,15.10
2022-10-21T14:53:29.779Z,15.10
2022-10-21T14:56:04.565Z,15.10
2022-10-21T14:58:37.399Z,15.10
2022-10-21T15:01:22.082Z,15.10
2022-10-21T15:03:54.923Z,15.10
2022-10-21T15:06:26.644Z,15.10
2022-10-21T15:08:56.378Z,15.10
2022-10-21T15:11:26.112Z,15.10
2022-10-21T15:14:06.013Z,15.00
2022-10-21T15:16:33.248Z,15.10
2022-10-21T15:19:07.888Z,15.00
2022-10-21T15:21:47.105Z,15.00
2022-10-21T15:24:28.737Z,15.00
2022-10-21T15:26:58.599Z,15.00
2022-10-21T15:29:35.025Z,15.00
2022-10-21T15:32:02.445Z,15.00
2022-10-21T15:34:29.441Z,14.90
2022-10-21T15:36:56.195Z,14.90
2022-10-21T15:39:23.418Z,14.90
2022-10-21T15:41:54.839Z,14.90
2022-10-21T15:44:23.424Z,14.90
2022-10-21T15:46:50.463Z,14.90
2022-10-21T15:49:22.451Z,14.80
2022-10-21T15:51:49.915Z,14.80
2022-10-21T15:54:17.864Z,14.80
2022-10-21T15:56:47.078Z,14.80
2022-10-21T15:59:22.505Z,14.80
2022-10-21T16:01:50.832Z,14.80
2022-10-21T16:04:18.239Z,14.70
2022-10-21T16:06:47.983Z,14.80
2022-10-21T16:09:26.598Z,14.70
2022-10-21T16:11:59.237Z,14.70
2022-10-21T16:14:29.436Z,14.70
2022-10-21T16:17:00.747Z,14.70
2022-10-21T16:19:27.983Z,14.70
2022-10-21T16:21:55.341Z,14.60
2022-10-21T16:24:22.027Z,14.60
2022-10-21T16:26:49.719Z,14.60
2022-10-21T16:29:19.869Z,14.60
2022-10-21T16:31:47.000Z,14.60
2022-10-21T16:34:13.905Z,14.60
2022-10-21T16:36:40.532Z,14.60
2022-10-21T16:39:14.613Z,14.60
2022-10-21T16:41:41.207Z,14.50
2022-10-21T16:44:07.788Z,14.50
2022-10-21T16:46:39.995Z,14.50
2022-10-21T16:49:14.782Z,14.50
2022-10-21T16:51:45.847Z,14.40
2022-10-21T16:54:12.796Z,14.40
2022-10-21T16:56:39.453Z,14.50
2022-10-21T16:59:07.038Z,14.40
2022-10-21T17:01:34.378Z,14.40
2022-10-21T17:04:01.487Z,14.40
2022-10-21T17:06:28.308Z,14.30
2022-10-21T17:08:56.568Z,14.30
2022-10-21T17:11:40.726Z,14.30
2022-10-21T17:14:11.835Z,14.20
2022-10-21T17:16:39.986Z,14.20
2022-10-21T17:19:07.921Z,14.20
2022-10-21T17:21:34.736Z,14.20
2022-10-21T17:24:02.997Z,14.20
2022-10-21T17:26:36.655Z,14.20
2022-10-21T17:29:03.486Z,14.20
2022-10-21T17:31:30.879Z,14.20
2022-10-21T17:34:07.199Z,14.20
2022-10-21T17:36:35.094Z,14.20
2022-10-21T17:39:02.110Z,14.20
2022-10-21T17:41:28.850Z,14.30
2022-10-21T17:43:55.917Z,14.30
2022-10-21T17:46:24.743Z,14.30
2022-10-21T17:48:56.481Z,14.30
2022-10-21T17:51:24.942Z,14.20
2022-10-21T17:53:53.264Z,14.20
2022-10-21T17:56:20.561Z,14.20
2022-10-21T17:58:51.902Z,14.20
2022-10-21T18:01:18.821Z,14.20
2022-10-21T18:03:45.648Z,14.10
2022-10-21T18:06:13.831Z,14.10
2022-10-21T18:08:41.246Z,14.10
2022-10-21T18:11:12.946Z,14.00
2022-10-21T18:13:40.416Z,14.00
2022-10-21T18:16:12.972Z,14.00
2022-10-21T18:21:18.265Z,13.90
2022-10-21T18:23:47.170Z,14.00
2022-10-21T18:26:19.350Z,14.10
2022-10-21T18:28:53.601Z,14.00
2022-10-21T18:31:21.605Z,14.00
2022-10-21T18:33:48.649Z,14.00
2022-10-21T18:36:17.188Z,14.00
2022-10-21T18:38:44.143Z,13.90
2022-10-21T18:41:20.123Z,13.90
2022-10-21T18:44:00.944Z,14.00
2022-10-21T18:46:28.813Z,13.80
2022-10-21T18:48:55.503Z,13.90
2022-10-21T18:51:23.867Z,13.90
2022-10-21T18:53:52.751Z,13.90
2022-10-21T18:56:22.173Z,13.90
2022-10-21T18:58:49.839Z,13.90
2022-10-21T19:01:18.250Z,13.90
2022-10-21T19:03:45.623Z,13.90
2022-10-21T19:06:18.264Z,13.90
2022-10-21T19:08:45.762Z,13.90
2022-10-21T19:11:12.689Z,13.90
2022-10-21T19:13:39.432Z,13.90
2022-10-21T19:16:06.652Z,13.90
2022-10-21T19:18:33.339Z,13.90
2022-10-21T19:21:01.231Z,13.80
2022-10-21T19:23:31.517Z,13.80
2022-10-21T19:26:06.025Z,13.90
2022-10-21T19:28:33.991Z,13.80
2022-10-21T19:31:01.138Z,13.90
2022-10-21T19:33:28.332Z,13.80
2022-10-21T19:35:55.050Z,13.90
2022-10-21T19:38:39.649Z,13.90
2022-10-21T19:41:13.527Z,13.90
2022-10-21T19:43:40.310Z,13.90
2022-10-21T19:46:10.778Z,13.90
2022-10-21T19:48:37.674Z,13.90
2022-10-21T19:51:04.831Z,13.80
2022-10-21T19:53:34.136Z,13.90
2022-10-21T19:56:36.149Z,13.90
2022-10-21T19:59:04.141Z,13.90
2022-10-21T20:01:32.447Z,13.90
2022-10-21T20:04:01.019Z,13.80
2022-10-21T20:06:30.255Z,13.80
2022-10-21T20:08:59.156Z,13.70
2022-10-21T20:11:27.113Z,13.70
2022-10-21T20:13:54.004Z,13.70
2022-10-21T20:16:22.193Z,13.70
2022-10-21T20:18:49.398Z,13.70
2022-10-21T20:21:17.768Z,13.70
2022-10-21T20:23:47.404Z,13.70
2022-10-21T20:26:14.633Z,13.70
2022-10-21T20:28:42.714Z,13.70
2022-10-21T20:31:12.401Z,13.70
2022-10-21T20:33:48.746Z,13.70
2022-10-21T20:36:28.499Z,13.60
2022-10-21T20:38:58.032Z,13.70
2022-10-21T20:41:28.195Z,13.70
2022-10-21T20:43:55.135Z,13.70
2022-10-21T20:46:23.724Z,13.70
2022-10-21T20:48:51.360Z,13.70
2022-10-21T20:51:20.747Z,13.60
2022-10-21T20:53:49.525Z,13.60
2022-10-21T20:56:16.627Z,13.60
2022-10-21T20:58:44.008Z,13.60
2022-10-21T21:01:20.849Z,13.60
2022-10-21T21:03:55.799Z,13.70
2022-10-21T21:06:23.357Z,13.70
2022-10-21T21:09:14.700Z,13.70
2022-10-21T21:11:36.852Z,13.80
2022-10-21T21:14:03.770Z,13.80
2022-10-21T21:16:30.656Z,13.80
2022-10-21T21:19:00.001Z,13.80
2022-10-21T21:21:28.147Z,13.90
2022-10-21T21:23:55.568Z,13.90
2022-10-21T21:26:25.667Z,13.90
2022-10-21T21:28:52.843Z,13.90
2022-10-21T21:31:21.784Z,13.90
2022-10-21T21:33:48.519Z,14.00
2022-10-21T21:36:19.939Z,13.90
2022-10-21T21:38:48.077Z,13.90
2022-10-21T21:41:16.505Z,13.90
2022-10-21T21:43:48.466Z,13.90
2022-10-21T21:46:23.673Z,13.90
2022-10-21T21:49:04.720Z,13.90
2022-10-21T21:51:34.595Z,13.90
2022-10-21T21:54:01.500Z,13.80
2022-10-21T21:56:28.376Z,13.90
2022-10-21T21:58:57.541Z,13.80
2022-10-21T22:01:26.761Z,13.80
2022-10-21T22:03:54.132Z,13.70
2022-10-21T22:08:56.564Z,13.70
2022-10-21T22:11:25.239Z,13.70
2022-10-21T22:13:52.707Z,13.60
2022-10-21T22:16:24.304Z,13.70
2022-10-21T22:18:51.323Z,13.60
2022-10-21T22:21:18.620Z,13.60
2022-10-21T22:23:46.519Z,13.50
2022-10-21T22:26:14.069Z,13.50
2022-10-21T22:28:41.638Z,13.50
2022-10-21T22:31:10.991Z,13.50
2022-10-21T22:33:38.148Z,13.40
2022-10-21T22:36:06.127Z,13.40
2022-10-21T22:38:33.029Z,13.40
2022-10-21T22:41:01.747Z,13.30
2022-10-21T22:43:29.248Z,13.30
2022-10-21T22:46:05.264Z,13.30
2022-10-21T22:48:43.248Z,13.30
2022-10-21T22:51:09.899Z,13.30
2022-10-21T22:53:36.717Z,13.30
2022-10-21T22:56:03.748Z,13.20
2022-10-21T22:58:30.388Z,13.20
2022-10-21T23:00:57.403Z,13.20
2022-10-21T23:03:24.034Z,13.20
2022-10-21T23:05:51.391Z,13.20
2022-10-21T23:08:18.390Z,13.10
2022-10-21T23:10:48.593Z,13.10
2022-10-21T23:13:15.286Z,13.10
2022-10-21T23:15:41.920Z,13.10
2022-10-21T23:18:08.711Z,13.10
2022-10-21T23:20:35.397Z,13.10
2022-10-21T23:23:02.073Z,13.00
2022-10-21T23:25:28.968Z,13.00
2022-10-21T23:27:55.723Z,13.00
2022-10-21T23:30:22.638Z,13.00
2022-10-21T23:32:49.887Z,12.90
2022-10-21T23:35:17.035Z,12.90
2022-10-21T23:37:43.999Z,12.90
2022-10-21T23:40:11.191Z,12.90
2022-10-21T23:42:41.921Z,12.90
2022-10-21T23:45:11.169Z,12.90
2022-10-21T23:47:39.471Z,12.80
2022-10-21T23:50:08.078Z,12.80
2022-10-21T23:52:35.039Z,12.80
2022-10-21T23:55:01.855Z,12.80
2022-10-21T23:57:28.417Z,12.80
2022-10-21T23:59:55.036Z,12.80
